Página principal
METAR-TAF:

METAR-TAF

Aeroportos :

Dakar, Senegal

Aeroporto Internacional Yoff-Léopold Sédar Senghor

latitude: 14-44N, longitude: 017-30W, altura: 27 m

Observação actual do tempo

O boletim foi feito há 57 minutos, às 19:00 UTC
Vento 14 kt de norte
Temperatura 23°C
Humidade 61%
Pressão 1013 hPa
Visibilidade: 7000 m

METAR: GOOY 121900Z 36014KT 7000 NSC 23/15 Q1013

Hora: 19:57 (19:57 UTC)

Previsão

O boletim foi feito há 2 horas e 27 minutos, às 17:30 UTC
Previsão válida de 12 às 18 UTC a 13 às 24 UTC
Vento 13 kt de nor-nordeste
Visibilidade: 6000 m

TAF: GOOY 121730Z 1218/1324 02013KT 6000 NSC

Observações e previsões do tempo de mais de 4000 aeroportos (mensagens METAR e TAF).

As estações disponíveis são os pontos amarelos e vermelhos sobre o mapa.

Mova o rato sobre o mapa para ver o nome da estação.

Depois clique no ponto para visualizar as observações e previsões meteorológicas.

Para alterar o mapa : clique nos botões verdes com uma cruz preta para aumentar o zoom; no botão verde com uma pitada de zoom; ou nas setas verdes para mapas adjacentes.


METAR-TAF: